createdAt,value
2023-04-02T00:00:08.350Z,26.84
2023-04-02T00:01:08.358Z,27.66
2023-04-02T00:02:08.362Z,26.08
2023-04-02T00:03:08.466Z,25.71
2023-04-02T00:04:08.391Z,27.85
2023-04-02T00:05:08.330Z,27.58
2023-04-02T00:06:08.320Z,27.34
2023-04-02T00:07:08.381Z,26.55
2023-04-02T00:08:08.336Z,27.93
2023-04-02T00:09:08.374Z,28.17
2023-04-02T00:10:08.344Z,28.60
2023-04-02T00:11:08.350Z,27.25
2023-04-02T00:12:08.354Z,26.10
2023-04-02T00:13:08.329Z,27.89
2023-04-02T00:14:08.350Z,26.73
2023-04-02T00:15:08.341Z,25.70
2023-04-02T00:16:08.462Z,27.41
2023-04-02T00:17:08.334Z,27.59
2023-04-02T00:18:08.359Z,28.23
2023-04-02T00:19:08.337Z,25.37
2023-04-02T00:20:08.343Z,26.28
2023-04-02T00:21:08.369Z,26.33
2023-04-02T00:22:08.394Z,27.93
2023-04-02T00:23:08.350Z,26.42
2023-04-02T00:24:08.338Z,28.62
2023-04-02T00:25:08.341Z,27.64
2023-04-02T00:26:08.379Z,27.54
2023-04-02T00:27:08.396Z,27.88
2023-04-02T00:28:08.404Z,27.04
2023-04-02T00:29:08.414Z,25.66
2023-04-02T00:30:08.403Z,26.63
2023-04-02T00:31:08.403Z,27.85
2023-04-02T00:32:08.439Z,26.06
2023-04-02T00:33:08.468Z,26.53
2023-04-02T00:34:08.433Z,26.49
2023-04-02T00:35:08.428Z,25.00
2023-04-02T00:36:08.436Z,26.47
2023-04-02T00:37:08.435Z,27.12
2023-04-02T00:38:08.433Z,25.85
2023-04-02T00:39:08.448Z,26.91
2023-04-02T00:40:08.433Z,26.12
2023-04-02T00:41:08.444Z,27.75
2023-04-02T00:42:08.477Z,27.42
2023-04-02T00:43:08.467Z,27.77
2023-04-02T00:44:08.482Z,27.55
2023-04-02T00:45:08.489Z,26.47
2023-04-02T00:46:08.560Z,28.30
2023-04-02T00:47:08.524Z,28.22
2023-04-02T00:48:08.533Z,27.91
2023-04-02T00:49:08.507Z,27.26
2023-04-02T00:50:08.529Z,25.47
2023-04-02T00:51:08.531Z,27.87
2023-04-02T00:52:08.542Z,27.01
2023-04-02T00:53:08.564Z,25.00
2023-04-02T00:54:08.566Z,26.48
2023-04-02T00:55:08.574Z,27.58
2023-04-02T00:56:08.543Z,27.35
2023-04-02T00:57:08.620Z,26.78
2023-04-02T00:58:08.597Z,26.98
2023-04-02T00:59:08.595Z,27.28
2023-04-02T01:00:08.623Z,26.39
2023-04-02T01:01:08.697Z,27.35
2023-04-02T01:02:08.632Z,28.43
2023-04-02T01:03:08.692Z,27.64
2023-04-02T01:04:08.621Z,27.38
2023-04-02T01:05:08.641Z,26.89
2023-04-02T01:06:08.663Z,25.00
2023-04-02T01:07:08.671Z,27.10
2023-04-02T01:08:08.664Z,26.50
2023-04-02T01:09:08.646Z,26.70
2023-04-02T01:10:08.680Z,26.62
2023-04-02T01:11:08.664Z,27.34
2023-04-02T01:12:08.728Z,29.65
2023-04-02T01:13:08.734Z,27.19
2023-04-02T01:14:08.725Z,27.95
2023-04-02T01:15:08.731Z,27.25
2023-04-02T01:16:08.806Z,26.28
2023-04-02T01:17:08.774Z,25.66
2023-04-02T01:18:08.784Z,27.43
2023-04-02T01:19:08.801Z,28.61
2023-04-02T01:20:08.805Z,28.53
2023-04-02T01:21:08.785Z,26.86
2023-04-02T01:22:08.851Z,27.78
2023-04-02T01:23:08.819Z,26.84
2023-04-02T01:24:08.863Z,28.99
2023-04-02T01:25:08.831Z,27.61
2023-04-02T01:26:08.840Z,29.26
2023-04-02T01:27:08.846Z,26.62
2023-04-02T01:28:08.857Z,26.58
2023-04-02T01:29:08.894Z,27.58
2023-04-02T01:30:08.870Z,26.87
2023-04-02T01:31:08.934Z,26.36
2023-04-02T01:32:08.902Z,27.19
2023-04-02T01:33:08.944Z,25.14
2023-04-02T01:34:08.922Z,27.25
2023-04-02T01:35:08.934Z,26.49
2023-04-02T01:36:09.028Z,26.65
2023-04-02T01:37:08.969Z,27.73
2023-04-02T01:38:08.964Z,26.34
2023-04-02T01:39:08.981Z,26.17
2023-04-02T01:40:09.007Z,27.49
2023-04-02T01:41:09.013Z,27.62
2023-04-02T01:42:09.023Z,27.44
2023-04-02T01:43:09.066Z,27.01
2023-04-02T01:44:09.052Z,26.99
2023-04-02T01:45:09.087Z,27.92
2023-04-02T01:46:09.123Z,28.56
2023-04-02T01:47:09.089Z,27.72
2023-04-02T01:48:09.176Z,27.12
2023-04-02T01:49:09.149Z,27.85
2023-04-02T01:50:09.136Z,28.68
2023-04-02T01:51:09.703Z,27.30
2023-04-02T01:52:09.168Z,27.77
2023-04-02T01:53:09.156Z,27.19
2023-04-02T01:54:09.212Z,27.60
2023-04-02T01:55:09.221Z,28.46
2023-04-02T01:56:09.231Z,27.46
2023-04-02T01:57:09.303Z,25.46
2023-04-02T01:58:09.238Z,27.18
2023-04-02T01:59:09.247Z,28.42
2023-04-02T02:00:09.269Z,27.30
2023-04-02T02:01:09.329Z,29.49
2023-04-02T02:02:09.396Z,28.76
2023-04-02T02:03:09.321Z,28.37
2023-04-02T02:04:09.329Z,26.98
2023-04-02T02:05:09.330Z,26.22
2023-04-02T02:06:09.379Z,25.84
2023-04-02T02:07:09.361Z,27.29
2023-04-02T02:08:09.386Z,28.23
2023-04-02T02:09:09.396Z,26.62
2023-04-02T02:10:09.404Z,27.87
2023-04-02T02:11:09.399Z,28.19
2023-04-02T02:12:09.446Z,26.91
2023-04-02T02:13:09.432Z,26.76
2023-04-02T02:14:09.434Z,26.20
2023-04-02T02:15:09.477Z,26.89
2023-04-02T02:16:09.541Z,27.62
2023-04-02T02:17:09.517Z,27.17
2023-04-02T02:18:09.515Z,26.12
2023-04-02T02:19:09.488Z,25.70
2023-04-02T02:20:09.518Z,28.19
2023-04-02T02:21:09.572Z,28.89
2023-04-02T02:22:09.557Z,25.86
2023-04-02T02:23:09.587Z,25.60
2023-04-02T02:24:09.617Z,27.19
2023-04-02T02:25:09.584Z,26.54
2023-04-02T02:26:09.591Z,25.83
2023-04-02T02:27:09.641Z,25.12
2023-04-02T02:28:09.615Z,27.92
2023-04-02T02:29:09.616Z,28.14
2023-04-02T02:30:09.668Z,27.82
2023-04-02T02:31:09.689Z,26.57
2023-04-02T02:32:09.793Z,25.95
2023-04-02T02:33:09.718Z,26.65
2023-04-02T02:34:09.736Z,26.05
2023-04-02T02:35:09.724Z,26.56
2023-04-02T02:36:09.806Z,27.62
2023-04-02T02:37:09.781Z,26.92
2023-04-02T02:38:09.746Z,27.12
2023-04-02T02:39:09.793Z,27.60
2023-04-02T02:40:09.800Z,28.68
2023-04-02T02:41:09.810Z,27.99
2023-04-02T02:42:10.109Z,26.31
2023-04-02T02:43:09.830Z,26.52
2023-04-02T02:44:09.879Z,26.78
2023-04-02T02:45:09.876Z,27.38
2023-04-02T02:46:09.905Z,26.21
2023-04-02T02:47:09.912Z,28.26
2023-04-02T02:48:09.919Z,26.33
2023-04-02T02:49:09.938Z,26.79
2023-04-02T02:50:09.960Z,27.43
2023-04-02T02:51:09.954Z,26.60
2023-04-02T02:52:09.982Z,27.36
2023-04-02T02:53:09.984Z,29.98
2023-04-02T02:54:10.026Z,28.54
2023-04-02T02:55:10.035Z,25.88
2023-04-02T02:56:10.010Z,25.00
2023-04-02T02:57:10.113Z,27.20
2023-04-02T02:58:10.061Z,27.35
2023-04-02T02:59:10.078Z,26.51
2023-04-02T03:00:10.105Z,26.43
2023-04-02T03:01:10.161Z,27.32
2023-04-02T03:02:10.117Z,26.37
2023-04-02T03:03:10.187Z,28.01
2023-04-02T03:04:10.249Z,27.33
2023-04-02T03:05:10.150Z,29.02
2023-04-02T03:06:10.168Z,27.48
2023-04-02T03:07:10.175Z,29.14
2023-04-02T03:08:10.197Z,27.46
2023-04-02T03:09:10.203Z,29.35
2023-04-02T03:10:10.219Z,27.09
2023-04-02T03:11:10.245Z,27.85
2023-04-02T03:12:10.341Z,26.71
2023-04-02T03:13:10.278Z,25.98
2023-04-02T03:14:10.280Z,26.53
2023-04-02T03:15:10.287Z,27.07
2023-04-02T03:16:10.348Z,27.32
2023-04-02T03:17:10.301Z,26.99
2023-04-02T03:18:10.349Z,26.06
2023-04-02T03:19:10.362Z,25.99
2023-04-02T03:20:10.346Z,26.10
2023-04-02T03:21:10.358Z,27.40
2023-04-02T03:22:10.411Z,27.15
2023-04-02T03:23:10.404Z,27.31
2023-04-02T03:24:10.425Z,27.53
2023-04-02T03:25:10.448Z,28.11
2023-04-02T03:26:10.472Z,26.03
2023-04-02T03:27:10.463Z,27.38
2023-04-02T03:28:10.484Z,26.52
2023-04-02T03:29:10.553Z,26.94
2023-04-02T03:30:10.560Z,28.68
2023-04-02T03:31:10.628Z,27.94
2023-04-02T03:32:10.591Z,28.13
2023-04-02T03:33:10.622Z,28.03
2023-04-02T03:34:10.614Z,27.44
2023-04-02T03:35:10.636Z,28.88
2023-04-02T03:36:10.701Z,28.54
2023-04-02T03:37:10.671Z,26.85
2023-04-02T03:38:10.713Z,28.61
2023-04-02T03:39:10.742Z,28.29
2023-04-02T03:40:10.719Z,27.63
2023-04-02T03:41:10.729Z,28.26
2023-04-02T03:42:10.761Z,29.27
2023-04-02T03:43:10.797Z,27.52
2023-04-02T03:44:10.826Z,28.48
2023-04-02T03:45:10.824Z,25.76
2023-04-02T03:46:10.878Z,29.19
2023-04-02T03:47:10.853Z,25.37
2023-04-02T03:48:10.894Z,28.41
2023-04-02T03:49:10.919Z,25.67
2023-04-02T03:50:10.934Z,27.96
2023-04-02T03:51:10.918Z,26.02
2023-04-02T03:52:10.958Z,26.81
2023-04-02T03:53:10.974Z,26.67
2023-04-02T03:54:11.002Z,27.54
2023-04-02T03:55:10.996Z,29.14
2023-04-02T03:56:11.043Z,28.40
2023-04-02T03:57:11.073Z,26.71
2023-04-02T03:58:11.060Z,26.72
2023-04-02T03:59:11.067Z,26.59
2023-04-02T04:00:11.106Z,27.55
2023-04-02T04:01:11.103Z,27.21
2023-04-02T04:02:11.188Z,27.06
2023-04-02T04:03:11.255Z,26.74
2023-04-02T04:04:11.294Z,26.68
2023-04-02T04:05:11.779Z,27.59
2023-04-02T04:06:11.228Z,26.91
2023-04-02T04:07:11.229Z,26.46
2023-04-02T04:08:11.276Z,27.27
2023-04-02T04:09:11.296Z,25.46
2023-04-02T04:10:11.325Z,27.86
2023-04-02T04:11:11.348Z,28.76
2023-04-02T04:12:11.322Z,26.35
2023-04-02T04:13:11.377Z,26.89
2023-04-02T04:14:11.389Z,30.44
2023-04-02T04:15:11.429Z,27.84
2023-04-02T04:16:11.487Z,27.44
2023-04-02T04:17:11.475Z,28.36
2023-04-02T04:18:11.462Z,26.56
2023-04-02T04:19:11.484Z,27.16
2023-04-02T04:20:11.515Z,30.52
2023-04-02T04:21:11.539Z,25.00
2023-04-02T04:22:11.552Z,27.79
2023-04-02T04:23:11.590Z,27.58
2023-04-02T04:24:11.604Z,26.19
2023-04-02T04:25:11.637Z,26.25
2023-04-02T04:26:11.662Z,27.19
2023-04-02T04:27:11.642Z,25.39
2023-04-02T04:28:11.700Z,28.58
2023-04-02T04:29:11.727Z,25.87
2023-04-02T04:30:11.711Z,27.76
2023-04-02T04:31:11.735Z,25.23
2023-04-02T04:32:11.820Z,26.83
2023-04-02T04:33:11.781Z,25.94
2023-04-02T04:34:11.799Z,30.18
2023-04-02T04:35:11.829Z,28.66
2023-04-02T04:36:11.862Z,26.65
2023-04-02T04:37:11.866Z,27.45
2023-04-02T04:38:11.907Z,26.82
2023-04-02T04:39:11.898Z,28.07
2023-04-02T04:40:11.979Z,27.32
2023-04-02T04:41:11.951Z,27.11
2023-04-02T04:42:11.987Z,25.09
2023-04-02T04:43:12.016Z,25.92
2023-04-02T04:44:12.040Z,26.56
2023-04-02T04:45:12.044Z,25.84
2023-04-02T04:46:12.132Z,26.12
2023-04-02T04:47:12.094Z,25.65
2023-04-02T04:48:12.122Z,26.83
2023-04-02T04:49:12.176Z,27.78
2023-04-02T04:50:12.189Z,29.11
2023-04-02T04:51:12.209Z,28.61
2023-04-02T04:52:12.232Z,26.70
2023-04-02T04:53:12.247Z,26.83
2023-04-02T04:54:12.261Z,26.12
2023-04-02T04:55:13.869Z,27.12
2023-04-02T04:56:19.221Z,29.19
2023-04-02T04:57:13.362Z,29.45
2023-04-02T04:58:12.346Z,29.38
2023-04-02T04:59:12.373Z,29.46
2023-04-02T05:00:12.316Z,27.99
2023-04-02T05:01:12.336Z,28.29
2023-04-02T05:02:12.302Z,27.24
2023-04-02T05:03:12.297Z,26.66
2023-04-02T05:04:12.299Z,27.84
2023-04-02T05:05:12.302Z,25.39
2023-04-02T05:06:12.295Z,28.16
2023-04-02T05:07:12.316Z,27.57
2023-04-02T05:08:12.275Z,26.21
2023-04-02T05:09:12.291Z,26.47
2023-04-02T05:10:12.260Z,29.07
2023-04-02T05:11:12.262Z,26.17
2023-04-02T05:12:12.250Z,25.39
2023-04-02T05:13:12.246Z,25.32
2023-04-02T05:14:12.239Z,29.75
2023-04-02T05:15:12.230Z,26.18
2023-04-02T05:16:12.315Z,28.33
2023-04-02T05:17:12.259Z,27.62
2023-04-02T05:18:12.301Z,26.31
2023-04-02T05:19:12.316Z,27.15
2023-04-02T05:20:12.349Z,28.77
2023-04-02T05:21:12.337Z,28.41
2023-04-02T05:22:12.378Z,25.83
2023-04-02T05:23:12.385Z,28.70
2023-04-02T05:24:12.452Z,26.42
2023-04-02T05:25:12.470Z,26.37
2023-04-02T05:26:12.461Z,26.82
2023-04-02T05:27:12.514Z,25.73
2023-04-02T05:28:12.535Z,28.66
2023-04-02T05:29:12.561Z,27.26
2023-04-02T05:30:12.557Z,29.04
2023-04-02T05:31:12.581Z,27.39
2023-04-02T05:32:12.591Z,26.08
2023-04-02T05:33:12.647Z,28.76
2023-04-02T05:34:12.648Z,26.80
2023-04-02T05:35:12.634Z,25.57
2023-04-02T05:36:12.734Z,26.52
2023-04-02T05:37:12.669Z,26.43
2023-04-02T05:38:12.685Z,27.73
2023-04-02T05:39:12.741Z,25.46
2023-04-02T05:40:12.760Z,27.03
2023-04-02T05:41:12.803Z,27.29
2023-04-02T05:42:12.787Z,27.88
2023-04-02T05:43:12.809Z,26.57
2023-04-02T05:44:12.813Z,26.77
2023-04-02T05:45:12.848Z,26.74
2023-04-02T05:46:12.903Z,26.95
2023-04-02T05:47:12.921Z,27.71
2023-04-02T05:48:12.907Z,26.52
2023-04-02T05:49:12.980Z,28.79
2023-04-02T05:50:12.990Z,27.74
2023-04-02T05:51:13.022Z,26.85
2023-04-02T05:52:13.013Z,27.78
2023-04-02T05:53:13.036Z,29.88
2023-04-02T05:54:13.070Z,28.28
2023-04-02T05:55:13.127Z,28.18
2023-04-02T05:56:13.120Z,28.46
2023-04-02T05:57:13.193Z,26.94
2023-04-02T05:58:29.982Z,28.22
2023-04-02T05:59:14.190Z,28.47
2023-04-02T06:00:13.144Z,28.84
2023-04-02T06:01:13.153Z,29.02
2023-04-02T06:02:13.193Z,28.90
2023-04-02T06:03:13.154Z,30.43
2023-04-02T06:04:13.174Z,27.62
2023-04-02T06:05:13.107Z,26.29
2023-04-02T06:06:14.612Z,29.70
2023-04-02T06:07:13.096Z,27.91
2023-04-02T06:08:13.090Z,29.11
2023-04-02T06:09:13.826Z,29.41
2023-04-02T06:10:13.122Z,26.62
2023-04-02T06:11:13.078Z,28.50
2023-04-02T06:12:13.056Z,26.79
2023-04-02T06:13:13.058Z,26.18
2023-04-02T06:14:13.049Z,27.81
2023-04-02T06:15:13.058Z,26.12
2023-04-02T06:16:13.082Z,25.78
2023-04-02T06:17:13.050Z,28.23
2023-04-02T06:18:13.029Z,26.19
2023-04-02T06:19:13.004Z,30.48
2023-04-02T06:20:13.012Z,25.97
2023-04-02T06:21:13.045Z,26.55
2023-04-02T06:22:13.048Z,27.86
2023-04-02T06:23:13.079Z,27.31
2023-04-02T06:24:13.070Z,29.57
2023-04-02T06:25:13.076Z,29.23
2023-04-02T06:26:13.095Z,29.84
2023-04-02T06:27:13.091Z,26.71
2023-04-02T06:28:13.117Z,27.73
2023-04-02T06:29:13.148Z,28.36
2023-04-02T06:30:13.155Z,29.61
2023-04-02T06:31:13.191Z,27.74
2023-04-02T06:32:13.153Z,27.72
2023-04-02T06:33:13.155Z,29.30
2023-04-02T06:34:13.144Z,28.71
2023-04-02T06:35:13.192Z,29.43
2023-04-02T06:36:13.226Z,27.80
2023-04-02T06:37:13.229Z,25.89
2023-04-02T06:38:13.237Z,27.21
2023-04-02T06:39:13.224Z,27.97
2023-04-02T06:40:13.254Z,28.68
2023-04-02T06:41:13.223Z,27.74
2023-04-02T06:42:13.214Z,27.80
2023-04-02T06:43:13.245Z,25.45
2023-04-02T06:44:13.230Z,27.87
2023-04-02T06:45:13.258Z,28.92
2023-04-02T06:46:13.308Z,27.71
2023-04-02T06:47:13.272Z,29.19
2023-04-02T06:48:13.295Z,28.92
2023-04-02T06:49:13.290Z,28.30
2023-04-02T06:50:13.295Z,27.64
2023-04-02T06:51:13.255Z,28.88
2023-04-02T06:52:13.294Z,27.22
2023-04-02T06:53:13.319Z,26.67
2023-04-02T06:54:13.282Z,27.26
2023-04-02T06:55:13.325Z,27.45
2023-04-02T06:56:13.301Z,25.08
2023-04-02T06:57:13.324Z,26.86
2023-04-02T06:58:13.262Z,25.76
2023-04-02T06:59:13.292Z,27.02
2023-04-02T07:00:13.319Z,28.28
2023-04-02T07:01:13.406Z,29.03
2023-04-02T07:02:13.326Z,28.74
2023-04-02T07:03:13.331Z,27.18
2023-04-02T07:04:13.331Z,29.50
2023-04-02T07:05:13.447Z,28.57
2023-04-02T07:06:13.441Z,30.56
2023-04-02T07:07:13.470Z,31.23
2023-04-02T07:08:13.539Z,30.99
2023-04-02T07:09:13.610Z,29.82
2023-04-02T07:10:13.635Z,28.46
2023-04-02T07:11:13.719Z,28.69
2023-04-02T07:12:13.782Z,29.19
2023-04-02T07:13:13.840Z,27.78
2023-04-02T07:14:13.883Z,26.56
2023-04-02T07:15:13.897Z,27.66
2023-04-02T07:16:14.034Z,26.97
2023-04-02T07:17:14.019Z,25.57
2023-04-02T07:18:14.069Z,27.83
2023-04-02T07:19:14.112Z,25.00
2023-04-02T07:20:14.197Z,27.63
2023-04-02T07:21:14.226Z,28.26
2023-04-02T07:22:14.306Z,28.92
2023-04-02T07:23:16.451Z,24.52
2023-04-02T07:24:14.609Z,29.76
2023-04-02T07:25:14.614Z,27.82
2023-04-02T07:26:14.681Z,29.04
2023-04-02T07:27:14.722Z,27.65
2023-04-02T07:28:14.789Z,29.83
2023-04-02T07:29:14.839Z,28.12
2023-04-02T07:30:14.888Z,27.62
2023-04-02T07:31:14.970Z,27.63
2023-04-02T07:32:14.998Z,27.48
2023-04-02T07:33:15.053Z,29.31
2023-04-02T07:34:15.099Z,26.72
2023-04-02T07:35:15.131Z,25.98
2023-04-02T07:36:15.188Z,26.03
2023-04-02T07:37:15.204Z,25.30
2023-04-02T07:38:15.332Z,28.57
2023-04-02T07:39:15.295Z,26.19
2023-04-02T07:40:15.305Z,27.73
2023-04-02T07:41:15.857Z,28.78
2023-04-02T07:42:15.390Z,28.70
2023-04-02T07:43:15.460Z,28.15
2023-04-02T07:44:15.427Z,29.14
2023-04-02T07:45:15.451Z,29.25
2023-04-02T07:46:15.514Z,27.14
2023-04-02T07:47:15.505Z,30.31
2023-04-02T07:48:15.530Z,29.63
2023-04-02T07:49:15.543Z,26.77
2023-04-02T07:50:15.571Z,29.69
2023-04-02T07:51:15.576Z,26.28
2023-04-02T07:52:15.561Z,25.61
2023-04-02T07:53:15.612Z,28.05
2023-04-02T07:54:15.624Z,29.16
2023-04-02T07:55:15.637Z,28.31
2023-04-02T07:56:15.613Z,26.10
2023-04-02T07:57:15.636Z,27.85
2023-04-02T07:58:15.601Z,25.92
2023-04-02T07:59:15.616Z,29.68
2023-04-02T08:00:15.601Z,32.79
2023-04-02T08:01:15.584Z,28.09
2023-04-02T08:02:15.595Z,31.36
2023-04-02T08:03:15.770Z,28.94
2023-04-02T08:04:15.724Z,26.97
2023-04-02T08:05:15.599Z,28.97
2023-04-02T08:06:15.609Z,26.56
2023-04-02T08:07:15.618Z,26.39
2023-04-02T08:08:15.560Z,30.97
2023-04-02T08:09:15.565Z,30.20
2023-04-02T08:10:15.615Z,30.11
2023-04-02T08:11:15.601Z,28.59
2023-04-02T08:12:15.664Z,29.93
2023-04-02T08:13:15.649Z,29.25
2023-04-02T08:14:15.681Z,31.56
2023-04-02T08:15:15.748Z,27.94
2023-04-02T08:16:15.782Z,29.23
2023-04-02T08:17:15.840Z,29.85
2023-04-02T08:18:15.882Z,29.92
2023-04-02T08:19:15.982Z,29.56
2023-04-02T08:20:16.024Z,30.45
2023-04-02T08:21:16.688Z,33.30
2023-04-02T08:22:16.169Z,30.85
2023-04-02T08:23:16.241Z,33.35
2023-04-02T08:24:16.270Z,30.03
2023-04-02T08:25:16.347Z,30.05
2023-04-02T08:26:16.407Z,29.90
2023-04-02T08:27:16.449Z,30.23
2023-04-02T08:28:16.505Z,31.40
2023-04-02T08:29:16.593Z,28.48
2023-04-02T08:30:16.615Z,28.91
2023-04-02T08:31:16.738Z,29.76
2023-04-02T08:32:16.728Z,32.09
2023-04-02T08:33:16.811Z,30.83
2023-04-02T08:34:16.877Z,30.34
2023-04-02T08:35:16.915Z,29.69
2023-04-02T08:36:17.026Z,29.01
2023-04-02T08:37:17.025Z,31.73
2023-04-02T08:38:17.072Z,27.83
2023-04-02T08:39:17.114Z,33.64
2023-04-02T08:40:17.199Z,31.63
2023-04-02T08:41:17.288Z,30.73
2023-04-02T08:42:17.265Z,29.52
2023-04-02T08:43:17.287Z,33.86
2023-04-02T08:44:17.330Z,29.75
2023-04-02T08:46:18.451Z,34.01
2023-04-02T08:47:17.897Z,34.54
2023-04-02T08:48:17.367Z,32.51
2023-04-02T08:49:17.354Z,32.29
2023-04-02T08:50:17.387Z,33.10
2023-04-02T08:51:17.345Z,32.83
2023-04-02T08:52:17.351Z,33.72
2023-04-02T08:53:17.323Z,32.73
2023-04-02T08:54:17.304Z,32.30
2023-04-02T08:55:17.293Z,31.00
2023-04-02T08:56:17.314Z,35.09
2023-04-02T08:57:17.324Z,32.64
2023-04-02T08:58:17.299Z,35.02
2023-04-02T08:59:17.280Z,34.14
2023-04-02T09:00:17.253Z,31.51
2023-04-02T09:01:17.292Z,33.37
2023-04-02T09:02:17.249Z,37.08
2023-04-02T09:03:17.228Z,34.79
2023-04-02T09:04:17.281Z,38.24
2023-04-02T09:05:17.218Z,35.63
2023-04-02T09:06:17.234Z,35.25
2023-04-02T09:07:17.243Z,33.43
2023-04-02T09:08:17.218Z,36.50
2023-04-02T09:09:17.213Z,34.67
2023-04-02T09:10:17.278Z,36.31
2023-04-02T09:11:17.203Z,36.84
2023-04-02T09:12:17.182Z,34.64
2023-04-02T09:13:17.201Z,37.07
2023-04-02T09:14:17.203Z,41.48
2023-04-02T09:15:17.165Z,43.11
2023-04-02T09:16:17.225Z,40.28
2023-04-02T09:17:17.180Z,38.16
2023-04-02T09:18:17.180Z,40.82
2023-04-02T09:19:17.189Z,41.54
2023-04-02T09:20:17.244Z,39.44
2023-04-02T09:21:17.120Z,39.12
2023-04-02T09:22:17.136Z,35.79
2023-04-02T09:23:17.141Z,43.41
2023-04-02T09:24:17.144Z,45.25
2023-04-02T09:25:17.150Z,41.44
2023-04-02T09:26:17.109Z,42.20
2023-04-02T09:27:17.114Z,39.47
2023-04-02T09:28:17.094Z,41.61
2023-04-02T09:29:17.138Z,43.68
2023-04-02T09:30:17.141Z,44.52
2023-04-02T09:31:17.152Z,45.51
2023-04-02T09:32:17.160Z,42.85
2023-04-02T09:33:17.155Z,43.90
2023-04-02T09:34:17.162Z,46.39
2023-04-02T09:35:25.516Z,47.11
2023-04-02T09:36:18.229Z,47.26
2023-04-02T09:37:17.150Z,47.79
2023-04-02T09:38:17.149Z,48.67
2023-04-02T09:39:17.126Z,47.53
2023-04-02T09:40:17.135Z,46.57
2023-04-02T09:41:17.112Z,49.11
2023-04-02T09:42:17.114Z,47.41
2023-04-02T09:43:17.131Z,50.42
2023-04-02T09:44:17.096Z,47.66
2023-04-02T09:45:17.185Z,47.59
2023-04-02T09:46:17.151Z,49.87
2023-04-02T09:47:17.086Z,52.46
2023-04-02T09:48:17.088Z,51.63
2023-04-02T09:49:17.057Z,46.73
2023-04-02T09:50:17.073Z,53.09
2023-04-02T09:51:17.058Z,52.55
2023-04-02T09:52:17.046Z,53.23
2023-04-02T09:53:17.060Z,53.19
2023-04-02T09:54:17.046Z,53.93
2023-04-02T09:55:17.039Z,53.17
2023-04-02T09:56:17.012Z,53.90
2023-04-02T09:57:17.037Z,54.65
2023-04-02T09:58:17.022Z,58.01
2023-04-02T09:59:17.032Z,54.12
2023-04-02T10:01:17.054Z,57.87
2023-04-02T10:02:16.979Z,56.12
2023-04-02T10:03:17.010Z,58.20
2023-04-02T10:04:17.000Z,54.57
2023-04-02T10:05:18.877Z,54.67
2023-04-02T10:06:17.974Z,55.14
2023-04-02T10:07:16.949Z,55.74
2023-04-02T10:08:16.957Z,58.00
2023-04-02T10:09:16.936Z,56.42
2023-04-02T10:10:16.916Z,60.03
2023-04-02T10:11:16.934Z,59.71
2023-04-02T10:12:16.933Z,60.13
2023-04-02T10:13:16.912Z,59.07
2023-04-02T10:14:16.925Z,57.78
2023-04-02T10:15:16.905Z,58.38
2023-04-02T10:16:16.958Z,58.88
2023-04-02T10:17:16.959Z,63.56
2023-04-02T10:18:16.961Z,59.84
2023-04-02T10:19:17.018Z,61.25
2023-04-02T10:20:17.090Z,56.48
2023-04-02T10:21:17.088Z,57.74
2023-04-02T10:22:17.143Z,59.66
2023-04-02T10:23:17.203Z,63.63
2023-04-02T10:24:17.253Z,56.67
2023-04-02T10:25:17.308Z,61.59
2023-04-02T10:26:17.346Z,61.60
2023-04-02T10:27:17.477Z,60.89
2023-04-02T10:28:17.423Z,58.81
2023-04-02T10:29:17.494Z,59.30
2023-04-02T10:30:17.544Z,60.22
2023-04-02T10:31:17.681Z,63.18
2023-04-02T10:32:17.645Z,61.61
2023-04-02T10:33:17.739Z,61.83
2023-04-02T10:34:17.758Z,61.21
2023-04-02T10:35:17.778Z,61.05
2023-04-02T10:36:17.857Z,60.99
2023-04-02T10:37:17.863Z,62.38
2023-04-02T10:38:17.909Z,59.84
2023-04-02T10:39:17.963Z,58.36
2023-04-02T10:40:18.007Z,61.97
2023-04-02T10:41:18.046Z,62.34
2023-04-02T10:42:18.105Z,58.09
2023-04-02T10:43:18.138Z,59.01
2023-04-02T10:44:20.504Z,59.73
2023-04-02T10:45:18.170Z,62.33
2023-04-02T10:46:18.189Z,61.04
2023-04-02T10:47:18.155Z,61.88
2023-04-02T10:48:18.164Z,67.05
2023-04-02T10:49:18.122Z,63.58
2023-04-02T10:50:18.122Z,64.52
2023-04-02T10:51:18.155Z,60.22
2023-04-02T10:52:18.107Z,62.75
2023-04-02T10:53:18.102Z,64.45
2023-04-02T10:54:18.093Z,65.47
2023-04-02T10:55:18.105Z,66.26
2023-04-02T10:56:18.076Z,65.22
2023-04-02T10:57:18.141Z,67.14
2023-04-02T10:58:18.063Z,66.53
2023-04-02T10:59:18.046Z,66.84
2023-04-02T11:00:18.027Z,65.94
2023-04-02T11:01:18.089Z,66.43
2023-04-02T11:02:18.058Z,65.12
2023-04-02T11:03:18.102Z,66.06
2023-04-02T11:04:18.026Z,69.33
2023-04-02T11:05:18.055Z,68.62
2023-04-02T11:06:18.013Z,65.61
2023-04-02T11:07:18.009Z,68.41
2023-04-02T11:08:17.992Z,70.88
2023-04-02T11:09:17.980Z,69.02
2023-04-02T11:10:17.978Z,72.04
2023-04-02T11:11:17.977Z,67.86
2023-04-02T11:12:17.973Z,67.08
2023-04-02T11:13:17.985Z,67.09
2023-04-02T11:14:17.957Z,68.73
2023-04-02T11:15:17.969Z,67.48
2023-04-02T11:16:17.987Z,67.15
2023-04-02T11:17:17.942Z,72.64
2023-04-02T11:18:17.966Z,70.17
2023-04-02T11:19:17.927Z,73.18
2023-04-02T11:20:17.953Z,69.07
2023-04-02T11:21:17.908Z,70.15
2023-04-02T11:22:17.910Z,67.62
2023-04-02T11:23:17.935Z,67.66
2023-04-02T11:24:17.893Z,72.52
2023-04-02T11:25:17.904Z,72.20
2023-04-02T11:26:17.892Z,71.98
2023-04-02T11:27:17.897Z,69.93
2023-04-02T11:28:17.872Z,69.63
2023-04-02T11:29:17.854Z,72.54
2023-04-02T11:30:17.858Z,69.11
2023-04-02T11:31:17.879Z,69.02
2023-04-02T11:32:17.834Z,71.54
2023-04-02T11:33:23.589Z,74.07
2023-04-02T11:34:18.851Z,74.38
2023-04-02T11:35:17.831Z,74.42
2023-04-02T11:36:17.881Z,74.41
2023-04-02T11:37:17.800Z,73.93
2023-04-02T11:38:17.813Z,68.89
2023-04-02T11:39:17.880Z,73.29
2023-04-02T11:40:17.794Z,74.54
2023-04-02T11:41:17.776Z,73.30
2023-04-02T11:42:17.795Z,76.25
2023-04-02T11:43:17.828Z,68.83
2023-04-02T11:44:17.797Z,70.29
2023-04-02T11:45:19.570Z,71.88
2023-04-02T11:46:17.767Z,73.07
2023-04-02T11:47:17.760Z,71.36
2023-04-02T11:48:17.781Z,71.85
2023-04-02T11:49:17.732Z,75.80
2023-04-02T11:50:17.716Z,74.45
2023-04-02T11:51:19.392Z,68.85
2023-04-02T11:52:17.715Z,69.32
2023-04-02T11:53:17.726Z,70.12
2023-04-02T11:54:17.724Z,70.98
2023-04-02T11:55:17.688Z,71.60
2023-04-02T11:56:17.676Z,72.62
2023-04-02T11:57:20.249Z,74.13
2023-04-02T11:58:17.685Z,74.38
2023-04-02T11:59:17.707Z,74.63
2023-04-02T12:00:18.230Z,75.19
2023-04-02T12:01:17.655Z,71.68
2023-04-02T12:02:17.730Z,74.42
2023-04-02T12:03:17.642Z,75.18
2023-04-02T12:04:17.607Z,75.98
2023-04-02T12:05:17.697Z,74.73
2023-04-02T12:06:17.640Z,77.13
2023-04-02T12:07:17.613Z,74.50
2023-04-02T12:08:17.595Z,74.99
2023-04-02T12:09:17.611Z,74.78
2023-04-02T12:10:17.591Z,72.40
2023-04-02T12:11:17.603Z,74.71
2023-04-02T12:12:17.588Z,74.92
2023-04-02T12:13:17.597Z,69.60
2023-04-02T12:14:17.600Z,70.49
2023-04-02T12:15:17.590Z,68.95
2023-04-02T12:16:17.564Z,73.47
2023-04-02T12:17:17.587Z,74.20
2023-04-02T12:18:17.532Z,72.50
2023-04-02T12:19:17.575Z,71.30
2023-04-02T12:20:17.505Z,71.58
2023-04-02T12:21:17.535Z,72.82
2023-04-02T12:22:17.560Z,70.96
2023-04-02T12:23:17.510Z,68.82
2023-04-02T12:24:17.500Z,69.28
2023-04-02T12:25:17.511Z,72.47
2023-04-02T12:26:17.468Z,74.14
2023-04-02T12:27:17.504Z,71.59
2023-04-02T12:28:17.476Z,71.79
2023-04-02T12:29:17.474Z,72.78
2023-04-02T12:30:17.466Z,72.63
2023-04-02T12:31:17.498Z,74.00
2023-04-02T12:32:17.446Z,68.66
2023-04-02T12:33:17.456Z,73.76
2023-04-02T12:34:17.450Z,71.29
2023-04-02T12:35:17.447Z,72.87
2023-04-02T12:36:17.436Z,72.33
2023-04-02T12:37:17.432Z,75.13
2023-04-02T12:38:17.406Z,70.54
2023-04-02T12:39:17.429Z,72.76
2023-04-02T12:40:17.417Z,74.83
2023-04-02T12:41:17.391Z,73.88
2023-04-02T12:42:17.390Z,71.31
2023-04-02T12:43:17.385Z,71.55
2023-04-02T12:44:17.373Z,71.08
2023-04-02T12:45:17.377Z,69.10
2023-04-02T12:46:17.380Z,73.51
2023-04-02T12:47:17.359Z,71.99
2023-04-02T12:48:17.335Z,74.40
2023-04-02T12:49:17.340Z,70.94
2023-04-02T12:50:17.355Z,73.30
2023-04-02T12:51:17.695Z,71.85
2023-04-02T12:52:17.323Z,73.63
2023-04-02T12:53:17.394Z,70.49
2023-04-02T12:54:17.308Z,74.64